createdAt,value
2019-05-04T00:00:56.520Z,12.03
2019-05-04T00:03:25.089Z,12.13
2019-05-04T00:05:55.103Z,12.10
2019-05-04T00:08:21.813Z,12.09
2019-05-04T00:10:48.947Z,12.03
2019-05-04T00:13:16.138Z,12.05
2019-05-04T00:15:44.349Z,12.09
2019-05-04T00:18:11.232Z,12.07
2019-05-04T00:20:50.229Z,12.04
2019-05-04T00:23:06.920Z,12.05
2019-05-04T00:25:36.898Z,12.14
2019-05-04T00:28:05.447Z,11.87
2019-05-04T00:30:32.463Z,11.65
2019-05-04T00:33:07.764Z,11.49
2019-05-04T00:35:57.146Z,11.33
2019-05-04T00:38:24.870Z,11.45
2019-05-04T00:40:52.364Z,11.56
2019-05-04T00:43:19.147Z,11.66
2019-05-04T00:45:45.927Z,11.75
2019-05-04T00:48:12.689Z,11.78
2019-05-04T00:50:39.453Z,11.85
2019-05-04T00:53:06.215Z,11.87
2019-05-04T00:55:51.485Z,11.93
2019-05-04T00:58:21.027Z,11.96
2019-05-04T01:00:55.183Z,11.93
2019-05-04T01:03:22.065Z,11.98
2019-05-04T01:05:49.473Z,12.00
2019-05-04T01:08:16.203Z,12.04
2019-05-04T01:10:44.783Z,12.08
2019-05-04T01:13:11.585Z,12.05
2019-05-04T01:15:38.325Z,12.01
2019-05-04T01:18:06.219Z,12.02
2019-05-04T01:20:33.111Z,11.91
2019-05-04T01:22:59.851Z,11.83
2019-05-04T01:25:26.677Z,11.86
2019-05-04T01:27:54.632Z,12.02
2019-05-04T01:30:21.543Z,11.90
2019-05-04T01:32:48.276Z,11.92
2019-05-04T01:35:15.488Z,11.98
2019-05-04T01:38:04.357Z,11.92
2019-05-04T01:40:50.060Z,11.84
2019-05-04T01:43:20.277Z,11.73
2019-05-04T01:45:55.251Z,11.77
2019-05-04T01:48:24.351Z,11.74
2019-05-04T01:50:51.185Z,11.81
2019-05-04T01:53:26.657Z,11.92
2019-05-04T01:56:09.216Z,11.83
2019-05-04T01:58:35.893Z,11.77
2019-05-04T02:01:02.663Z,11.85
2019-05-04T02:03:29.406Z,11.85
2019-05-04T02:05:56.526Z,11.89
2019-05-04T02:08:24.672Z,11.93
2019-05-04T02:10:51.631Z,11.81
2019-05-04T02:13:18.357Z,11.83
2019-05-04T02:15:45.096Z,11.74
2019-05-04T02:18:11.855Z,11.74
2019-05-04T02:20:40.761Z,11.60
2019-05-04T02:23:07.592Z,11.57
2019-05-04T02:25:55.020Z,11.58
2019-05-04T02:28:47.159Z,11.57
2019-05-04T02:31:16.468Z,11.71
2019-05-04T02:33:42.529Z,11.67
2019-05-04T02:36:09.477Z,11.65
2019-05-04T02:38:36.478Z,11.61
2019-05-04T02:41:31.134Z,11.69
2019-05-04T02:43:57.874Z,11.63
2019-05-04T02:46:25.321Z,11.60
2019-05-04T02:48:56.462Z,11.49
2019-05-04T02:51:25.507Z,11.54
2019-05-04T02:53:55.364Z,11.54
2019-05-04T02:56:21.393Z,11.46
2019-05-04T02:58:48.151Z,11.42
2019-05-04T03:01:16.370Z,11.44
2019-05-04T03:03:45.819Z,11.48
2019-05-04T03:06:15.291Z,11.54
2019-05-04T03:08:41.109Z,11.68
2019-05-04T03:11:08.367Z,11.67
2019-05-04T03:13:35.772Z,11.54
2019-05-04T03:16:05.289Z,11.52
2019-05-04T03:18:38.197Z,11.57
2019-05-04T03:21:30.759Z,11.44
2019-05-04T03:23:58.083Z,11.43
2019-05-04T03:26:26.296Z,11.54
2019-05-04T03:28:55.246Z,11.45
2019-05-04T03:31:27.021Z,11.43
2019-05-04T03:33:50.711Z,11.42
2019-05-04T03:36:23.930Z,11.47
2019-05-04T03:38:53.854Z,11.41
2019-05-04T03:41:16.646Z,11.41
2019-05-04T03:43:45.350Z,11.47
2019-05-04T03:46:40.402Z,11.48
2019-05-04T03:49:16.416Z,11.48
2019-05-04T03:51:46.310Z,11.52
2019-05-04T03:54:11.751Z,11.52
2019-05-04T03:56:38.541Z,11.52
2019-05-04T03:59:05.295Z,11.46
2019-05-04T04:01:35.275Z,11.54
2019-05-04T04:04:05.303Z,11.55
2019-05-04T04:06:35.974Z,11.50
2019-05-04T04:09:08.540Z,11.52
2019-05-04T04:11:29.509Z,11.61
2019-05-04T04:13:56.280Z,11.60
2019-05-04T04:16:45.532Z,11.58
2019-05-04T04:19:14.998Z,11.60
2019-05-04T04:21:40.881Z,11.51
2019-05-04T04:24:07.603Z,11.57
2019-05-04T04:26:45.823Z,11.60
2019-05-04T04:29:17.899Z,11.57
2019-05-04T04:31:45.876Z,11.50
2019-05-04T04:34:15.441Z,11.50
2019-05-04T04:36:41.409Z,11.44
2019-05-04T04:39:24.095Z,11.46
2019-05-04T04:41:36.830Z,11.47
2019-05-04T04:44:06.077Z,11.43
2019-05-04T04:46:32.222Z,11.42
2019-05-04T04:48:59.158Z,11.43
2019-05-04T04:51:26.757Z,11.39
2019-05-04T04:53:56.310Z,11.36
2019-05-04T04:56:25.785Z,11.36
2019-05-04T04:58:55.681Z,11.27
2019-05-04T05:01:25.734Z,11.31
2019-05-04T05:03:55.406Z,11.38
2019-05-04T05:06:21.686Z,11.41
2019-05-04T05:08:48.475Z,11.29
2019-05-04T05:11:15.331Z,11.24
2019-05-04T05:13:42.095Z,11.30
2019-05-04T05:16:09.207Z,11.25
2019-05-04T05:18:36.092Z,11.28
2019-05-04T05:21:22.458Z,11.26
2019-05-04T05:23:49.325Z,11.09
2019-05-04T05:26:17.960Z,11.05
2019-05-04T05:28:44.999Z,11.08
2019-05-04T05:31:16.000Z,11.14
2019-05-04T05:33:51.306Z,11.12
2019-05-04T05:36:19.781Z,11.14
2019-05-04T05:38:55.908Z,11.14
2019-05-04T05:41:24.122Z,11.09
2019-05-04T05:43:57.447Z,11.01
2019-05-04T05:46:37.901Z,9.58
2019-05-04T05:49:35.194Z,9.03
2019-05-04T05:52:20.238Z,8.13
2019-05-04T05:55:19.817Z,7.54
2019-05-04T05:57:59.702Z,7.32
2019-05-04T06:00:49.042Z,6.91
2019-05-04T06:03:32.092Z,6.61
2019-05-04T06:05:57.206Z,6.68
2019-05-04T06:08:25.149Z,6.74
2019-05-04T06:10:56.289Z,6.74
2019-05-04T06:13:39.921Z,6.66
2019-05-04T06:16:26.324Z,6.39
2019-05-04T06:19:01.348Z,6.42
2019-05-04T06:21:54.565Z,6.42
2019-05-04T06:24:37.058Z,6.68
2019-05-04T06:27:11.854Z,6.68
2019-05-04T06:29:48.223Z,6.89
2019-05-04T06:32:24.885Z,7.20
2019-05-04T06:35:04.614Z,7.18
2019-05-04T06:37:59.490Z,7.24
2019-05-04T06:40:44.901Z,7.50
2019-05-04T06:43:15.946Z,7.64
2019-05-04T06:45:55.206Z,7.55
2019-05-04T06:48:30.869Z,7.41
2019-05-04T06:51:00.044Z,7.27
2019-05-04T06:53:38.760Z,7.41
2019-05-04T06:56:19.064Z,7.41
2019-05-04T06:58:42.169Z,7.58
2019-05-04T07:01:16.855Z,7.50
2019-05-04T07:03:44.410Z,7.26
2019-05-04T07:06:11.164Z,7.17
2019-05-04T07:08:40.253Z,7.11
2019-05-04T07:11:25.605Z,6.84
2019-05-04T07:13:35.552Z,6.93
2019-05-04T07:16:02.290Z,6.73
2019-05-04T07:18:29.726Z,6.47
2019-05-04T07:20:57.838Z,6.44
2019-05-04T07:23:24.865Z,6.41
2019-05-04T07:25:57.753Z,6.41
2019-05-04T07:28:20.314Z,6.57
2019-05-04T07:30:51.008Z,6.69
2019-05-04T07:33:24.922Z,6.80
2019-05-04T07:36:01.403Z,6.67
2019-05-04T07:38:47.521Z,6.80
2019-05-04T07:41:10.464Z,6.80
2019-05-04T07:43:34.336Z,7.02
2019-05-04T07:46:05.179Z,6.92
2019-05-04T07:48:29.001Z,6.92
2019-05-04T07:50:55.741Z,6.60
2019-05-04T07:53:22.521Z,6.45
2019-05-04T07:55:49.557Z,6.39
2019-05-04T07:58:16.322Z,6.39
2019-05-04T08:00:48.153Z,6.49
2019-05-04T08:03:12.124Z,6.51
2019-05-04T08:05:43.964Z,6.35
2019-05-04T08:08:15.555Z,6.33
2019-05-04T08:10:39.639Z,6.50
2019-05-04T08:13:07.515Z,6.41
2019-05-04T08:15:38.144Z,6.27
2019-05-04T08:18:06.032Z,6.19
2019-05-04T08:20:32.204Z,6.42
2019-05-04T08:23:01.338Z,6.68
2019-05-04T08:25:27.755Z,6.68
2019-05-04T08:27:54.913Z,6.53
2019-05-04T08:30:21.882Z,6.28
2019-05-04T08:32:49.959Z,6.20
2019-05-04T08:35:20.283Z,6.42
2019-05-04T08:37:45.586Z,6.42
2019-05-04T08:40:12.460Z,6.41
2019-05-04T08:42:44.619Z,6.33
2019-05-04T08:45:15.243Z,6.43
2019-05-04T08:47:58.383Z,6.42
2019-05-04T08:50:25.406Z,6.42
2019-05-04T08:53:01.616Z,6.49
2019-05-04T08:55:37.500Z,6.48
2019-05-04T08:58:14.791Z,6.17
2019-05-04T09:00:45.037Z,6.17
2019-05-04T09:03:27.223Z,6.47
2019-05-04T09:06:11.828Z,6.47
2019-05-04T09:08:22.715Z,6.63
2019-05-04T09:11:06.419Z,6.67
2019-05-04T09:13:21.905Z,6.65
2019-05-04T09:15:55.357Z,6.35
2019-05-04T09:18:19.341Z,6.30
2019-05-04T09:20:46.353Z,6.17
2019-05-04T09:23:14.454Z,6.31
2019-05-04T09:25:45.118Z,6.67
2019-05-04T09:28:13.607Z,6.85
2019-05-04T09:30:40.717Z,6.70
2019-05-04T09:33:09.507Z,6.70
2019-05-04T09:35:48.365Z,6.86
2019-05-04T09:38:05.388Z,6.67
2019-05-04T09:40:32.229Z,6.67
2019-05-04T09:43:11.803Z,6.75
2019-05-04T09:45:30.553Z,6.66
2019-05-04T09:47:59.651Z,6.54
2019-05-04T09:50:26.550Z,6.61
2019-05-04T09:53:17.482Z,6.61
2019-05-04T09:55:45.045Z,6.82
2019-05-04T09:58:26.536Z,6.36
2019-05-04T10:00:54.622Z,6.36
2019-05-04T10:03:21.038Z,6.19
2019-05-04T10:05:49.887Z,6.13
2019-05-04T10:08:16.602Z,6.27
2019-05-04T10:10:45.551Z,6.51
2019-05-04T10:13:35.442Z,6.51
2019-05-04T10:16:30.888Z,6.29
2019-05-04T10:19:00.461Z,5.76
2019-05-04T10:21:27.184Z,5.76
2019-05-04T10:23:55.292Z,5.77
2019-05-04T10:26:58.759Z,5.96
2019-05-04T10:29:28.944Z,6.18
2019-05-04T10:31:55.785Z,6.18
2019-05-04T10:34:24.107Z,6.41
2019-05-04T10:36:55.151Z,6.41
2019-05-04T10:39:21.722Z,7.11
2019-05-04T10:41:51.098Z,7.11
2019-05-04T10:44:19.130Z,7.22
2019-05-04T10:46:45.844Z,7.23
2019-05-04T10:49:14.600Z,7.09
2019-05-04T10:51:41.234Z,7.09
2019-05-04T10:54:07.967Z,7.09
2019-05-04T10:56:37.016Z,7.43
2019-05-04T10:59:06.021Z,7.56
2019-05-04T11:01:32.735Z,7.44
2019-05-04T11:03:59.472Z,7.17
2019-05-04T11:06:26.660Z,7.43
2019-05-04T11:08:54.407Z,7.63
2019-05-04T11:11:23.623Z,7.48
2019-05-04T11:14:02.291Z,7.68
2019-05-04T11:16:21.253Z,7.81
2019-05-04T11:18:48.341Z,8.06
2019-05-04T11:21:15.045Z,7.95
2019-05-04T11:23:41.804Z,7.96
2019-05-04T11:26:21.349Z,7.77
2019-05-04T11:28:51.056Z,7.88
2019-05-04T11:31:17.775Z,7.72
2019-05-04T11:33:44.640Z,7.84
2019-05-04T11:36:11.351Z,8.02
2019-05-04T11:38:38.100Z,8.02
2019-05-04T11:41:05.390Z,8.11
2019-05-04T11:43:32.377Z,8.04
2019-05-04T11:46:01.346Z,7.82
2019-05-04T11:48:28.078Z,7.60
2019-05-04T11:50:54.892Z,7.85
2019-05-04T11:53:21.635Z,7.53
2019-05-04T11:55:48.337Z,7.43
2019-05-04T11:58:15.393Z,7.32
2019-05-04T12:00:45.155Z,7.61
2019-05-04T12:03:11.858Z,7.71
2019-05-04T12:05:46.928Z,7.91
2019-05-04T12:08:34.658Z,7.89
2019-05-04T12:11:01.583Z,8.13
2019-05-04T12:13:28.319Z,8.23
2019-05-04T12:15:55.155Z,8.16
2019-05-04T12:18:21.972Z,8.25
2019-05-04T12:20:48.710Z,8.28
2019-05-04T12:23:15.443Z,8.09
2019-05-04T12:25:42.486Z,8.36
2019-05-04T12:28:09.229Z,8.48
2019-05-04T12:30:36.098Z,8.43
2019-05-04T12:33:04.904Z,8.55
2019-05-04T12:35:31.483Z,8.57
2019-05-04T12:37:58.214Z,8.61
2019-05-04T12:40:24.927Z,8.71
2019-05-04T12:42:55.168Z,8.99
2019-05-04T12:45:21.923Z,9.11
2019-05-04T12:47:48.636Z,8.57
2019-05-04T12:50:15.593Z,8.24
2019-05-04T12:52:44.795Z,8.09
2019-05-04T12:55:11.268Z,8.21
2019-05-04T12:57:38.001Z,8.15
2019-05-04T13:00:05.325Z,8.19
2019-05-04T13:02:34.254Z,8.49
2019-05-04T13:05:09.318Z,8.67
2019-05-04T13:07:36.011Z,8.50
2019-05-04T13:10:07.761Z,8.65
2019-05-04T13:12:34.386Z,8.69
2019-05-04T13:15:01.108Z,8.98
2019-05-04T13:17:47.472Z,9.12
2019-05-04T13:20:18.672Z,9.25
2019-05-04T13:22:47.912Z,9.48
2019-05-04T13:25:15.001Z,9.24
2019-05-04T13:27:42.214Z,8.98
2019-05-04T13:30:08.976Z,9.05
2019-05-04T13:32:35.685Z,9.18
2019-05-04T13:35:02.451Z,9.38
2019-05-04T13:37:29.505Z,9.46
2019-05-04T13:39:56.228Z,9.62
2019-05-04T13:42:24.792Z,9.61
2019-05-04T13:44:51.649Z,9.91
2019-05-04T13:47:21.743Z,10.05
2019-05-04T13:49:47.433Z,10.00
2019-05-04T13:52:15.207Z,10.14
2019-05-04T13:55:04.651Z,9.89
2019-05-04T13:57:34.534Z,9.97
2019-05-04T14:00:19.849Z,9.94
2019-05-04T14:03:12.247Z,10.15
2019-05-04T14:05:39.061Z,10.45
2019-05-04T14:08:05.768Z,10.59
2019-05-04T14:10:32.767Z,10.47
2019-05-04T14:12:59.786Z,9.98
2019-05-04T14:15:31.380Z,10.28
2019-05-04T14:17:55.133Z,10.43
2019-05-04T14:20:22.218Z,10.54
2019-05-04T14:22:48.990Z,10.48
2019-05-04T14:25:18.429Z,10.41
2019-05-04T14:27:45.293Z,10.43
2019-05-04T14:30:14.374Z,10.32
2019-05-04T14:32:41.765Z,10.42
2019-05-04T14:35:08.747Z,10.41
2019-05-04T14:37:35.472Z,10.13
2019-05-04T14:40:10.592Z,10.05
2019-05-04T14:42:32.051Z,9.89
2019-05-04T14:45:26.299Z,9.87
2019-05-04T14:48:11.211Z,9.72
2019-05-04T14:50:37.949Z,9.75
2019-05-04T14:53:04.861Z,10.12
2019-05-04T14:55:31.671Z,10.46
2019-05-04T14:58:01.511Z,10.67
2019-05-04T15:00:28.377Z,10.66
2019-05-04T15:02:55.214Z,10.56
2019-05-04T15:05:22.010Z,10.46
2019-05-04T15:07:51.493Z,10.58
2019-05-04T15:10:18.563Z,10.57
2019-05-04T15:12:45.260Z,10.57
2019-05-04T15:15:13.595Z,10.49
2019-05-04T15:17:41.185Z,10.30
2019-05-04T15:20:18.347Z,10.32
2019-05-04T15:22:45.141Z,10.22
2019-05-04T15:25:11.979Z,10.09
2019-05-04T15:27:38.732Z,9.93
2019-05-04T15:30:05.695Z,9.73
2019-05-04T15:32:34.828Z,9.72
2019-05-04T15:35:01.151Z,9.70
2019-05-04T15:37:27.832Z,9.56
2019-05-04T15:39:55.561Z,9.58
2019-05-04T15:42:22.263Z,9.71
2019-05-04T15:44:48.948Z,9.70
2019-05-04T15:47:15.898Z,9.64
2019-05-04T15:49:44.772Z,9.91
2019-05-04T15:52:18.847Z,10.05
2019-05-04T15:54:58.341Z,10.06
2019-05-04T15:57:45.547Z,10.07
2019-05-04T16:00:19.885Z,9.97
2019-05-04T16:02:46.570Z,9.97
2019-05-04T16:05:15.462Z,9.85
2019-05-04T16:07:44.695Z,9.89
2019-05-04T16:10:11.224Z,9.83
2019-05-04T16:12:38.437Z,9.88
2019-05-04T16:15:05.690Z,10.00
2019-05-04T16:17:34.182Z,9.90
2019-05-04T16:20:01.198Z,10.30
2019-05-04T16:22:29.387Z,10.30
2019-05-04T16:24:56.115Z,10.28
2019-05-04T16:27:24.732Z,10.32
2019-05-04T16:29:51.471Z,10.39
2019-05-04T16:32:18.146Z,10.40
2019-05-04T16:34:46.227Z,10.34
2019-05-04T16:37:15.050Z,10.43
2019-05-04T16:39:45.122Z,10.53
2019-05-04T16:42:12.000Z,10.50
2019-05-04T16:44:44.994Z,10.77
2019-05-04T16:47:11.523Z,10.95
2019-05-04T16:49:38.242Z,11.12
2019-05-04T16:52:35.042Z,11.13
2019-05-04T16:55:05.190Z,11.51
2019-05-04T16:57:32.053Z,11.85
2019-05-04T16:59:59.175Z,11.52
2019-05-04T17:02:34.741Z,11.72
2019-05-04T17:05:05.638Z,11.53
2019-05-04T17:07:32.388Z,11.41
2019-05-04T17:10:00.136Z,11.24
2019-05-04T17:12:27.406Z,11.44
2019-05-04T17:14:55.001Z,11.11
2019-05-04T17:17:22.442Z,10.95
2019-05-04T17:19:49.158Z,10.93
2019-05-04T17:22:16.376Z,11.14
2019-05-04T17:24:57.395Z,11.14
2019-05-04T17:27:44.535Z,10.73
2019-05-04T17:30:17.496Z,10.87
2019-05-04T17:32:44.410Z,10.94
2019-05-04T17:35:11.826Z,11.09
2019-05-04T17:37:38.510Z,10.92
2019-05-04T17:40:05.425Z,10.70
2019-05-04T17:42:36.212Z,10.92
2019-05-04T17:45:06.164Z,10.98
2019-05-04T17:47:35.043Z,10.86
2019-05-04T17:50:04.597Z,11.07
2019-05-04T17:52:35.203Z,10.72
2019-05-04T17:55:04.201Z,10.47
2019-05-04T17:57:30.993Z,10.53
2019-05-04T18:00:30.006Z,10.47
2019-05-04T18:02:58.980Z,10.33
2019-05-04T18:05:25.706Z,10.27
2019-05-04T18:07:52.432Z,10.28
2019-05-04T18:10:19.392Z,10.14
2019-05-04T18:13:05.556Z,10.01
2019-05-04T18:15:54.700Z,9.98
2019-05-04T18:18:55.875Z,10.03
2019-05-04T18:21:24.263Z,10.15
2019-05-04T18:23:50.998Z,10.05
2019-05-04T18:26:19.986Z,10.07
2019-05-04T18:28:46.694Z,10.02
2019-05-04T18:31:15.115Z,10.06
2019-05-04T18:33:41.889Z,9.97
2019-05-04T18:36:08.828Z,9.86
2019-05-04T18:38:35.503Z,9.67
2019-05-04T18:41:02.518Z,9.48
2019-05-04T18:43:47.408Z,9.69
2019-05-04T18:46:34.342Z,9.88
2019-05-04T18:49:05.235Z,10.08
2019-05-04T18:51:32.012Z,9.82
2019-05-04T18:53:58.710Z,9.56
2019-05-04T18:56:25.445Z,9.67
2019-05-04T18:58:52.119Z,9.84
2019-05-04T19:01:18.970Z,9.64
2019-05-04T19:03:45.672Z,9.45
2019-05-04T19:06:35.266Z,9.56
2019-05-04T19:09:02.468Z,9.30
2019-05-04T19:11:29.186Z,9.02
2019-05-04T19:13:55.912Z,9.02
2019-05-04T19:16:22.598Z,9.04
2019-05-04T19:18:49.332Z,9.22
2019-05-04T19:21:16.719Z,9.21
2019-05-04T19:23:46.630Z,9.04
2019-05-04T19:26:14.816Z,8.94
2019-05-04T19:28:42.411Z,8.87
2019-05-04T19:31:09.423Z,8.74
2019-05-04T19:33:38.406Z,8.84
2019-05-04T19:36:06.059Z,9.03
2019-05-04T19:38:34.729Z,9.09
2019-05-04T19:41:01.483Z,8.96
2019-05-04T19:43:54.839Z,8.91
2019-05-04T19:46:37.279Z,8.84
2019-05-04T19:49:07.371Z,8.93
2019-05-04T19:51:34.567Z,9.00
2019-05-04T19:54:01.346Z,8.81
2019-05-04T19:56:28.093Z,8.66
2019-05-04T19:58:54.822Z,8.44
2019-05-04T20:01:21.590Z,8.30
2019-05-04T20:03:48.288Z,8.24
2019-05-04T20:06:15.007Z,8.19
2019-05-04T20:08:48.270Z,8.19
2019-05-04T20:11:22.666Z,8.29
2019-05-04T20:13:49.386Z,8.26
2019-05-04T20:16:16.482Z,8.17
2019-05-04T20:18:44.557Z,8.11
2019-05-04T20:21:11.412Z,8.10
2019-05-04T20:23:40.020Z,7.97
2019-05-04T20:26:06.898Z,7.96
2019-05-04T20:28:34.637Z,8.00
2019-05-04T20:31:01.486Z,7.89
2019-05-04T20:33:28.568Z,8.17
2019-05-04T20:35:55.644Z,8.31
2019-05-04T20:38:24.568Z,8.23
2019-05-04T20:40:51.095Z,8.27
2019-05-04T20:43:17.951Z,8.30
2019-05-04T20:46:19.348Z,8.37
2019-05-04T20:49:01.555Z,8.49
2019-05-04T20:51:28.349Z,8.44
2019-05-04T20:54:00.999Z,8.42
2019-05-04T20:56:28.107Z,8.48
2019-05-04T20:58:54.841Z,8.54
2019-05-04T21:01:24.652Z,8.36
2019-05-04T21:04:10.867Z,8.24
2019-05-04T21:07:06.011Z,7.97
2019-05-04T21:09:35.542Z,7.91
2019-05-04T21:12:02.281Z,7.90
2019-05-04T21:14:29.384Z,7.97
2019-05-04T21:17:04.893Z,7.96
2019-05-04T21:19:49.647Z,7.92
2019-05-04T21:22:16.403Z,7.95
2019-05-04T21:24:45.533Z,7.95
2019-05-04T21:27:11.756Z,7.58
2019-05-04T21:29:38.525Z,7.56
2019-05-04T21:32:05.269Z,7.40
2019-05-04T21:34:32.007Z,7.26
2019-05-04T21:36:58.747Z,6.98
2019-05-04T21:39:25.850Z,6.98
2019-05-04T21:41:52.623Z,6.95
2019-05-04T21:44:25.802Z,6.88
2019-05-04T21:47:15.546Z,7.08
2019-05-04T21:50:04.593Z,7.33
2019-05-04T21:52:31.846Z,7.49
2019-05-04T21:54:58.635Z,7.38
2019-05-04T21:57:25.365Z,6.94
2019-05-04T21:59:52.539Z,7.04
2019-05-04T22:02:34.851Z,6.91
2019-05-04T22:05:04.494Z,6.72
2019-05-04T22:07:31.475Z,6.75
2019-05-04T22:09:58.237Z,6.69
2019-05-04T22:12:24.955Z,6.72
2019-05-04T22:14:51.697Z,6.70
2019-05-04T22:17:18.411Z,6.76
2019-05-04T22:19:45.220Z,6.87
2019-05-04T22:22:11.957Z,6.87
2019-05-04T22:24:38.762Z,7.16
2019-05-04T22:27:05.555Z,7.24
2019-05-04T22:29:32.295Z,7.21
2019-05-04T22:31:59.035Z,7.31
2019-05-04T22:34:26.452Z,7.23
2019-05-04T22:37:05.226Z,6.96
2019-05-04T22:39:31.605Z,6.96
2019-05-04T22:41:58.342Z,6.82
2019-05-04T22:44:26.267Z,6.88
2019-05-04T22:46:54.646Z,6.99
2019-05-04T22:49:21.680Z,7.23
2019-05-04T22:51:49.509Z,7.15
2019-05-04T22:54:39.600Z,7.36
2019-05-04T22:57:09.777Z,7.43
2019-05-04T22:59:38.485Z,7.35
2019-05-04T23:02:15.123Z,7.40
2019-05-04T23:04:44.599Z,7.29
2019-05-04T23:07:11.325Z,6.87
2019-05-04T23:09:38.469Z,6.94
2019-05-04T23:12:05.508Z,6.94
2019-05-04T23:14:34.690Z,6.79
2019-05-04T23:17:01.344Z,6.81
2019-05-04T23:19:28.115Z,6.82
2019-05-04T23:21:54.857Z,6.68
2019-05-04T23:24:21.622Z,6.71
2019-05-04T23:26:48.383Z,6.73
2019-05-04T23:29:17.103Z,6.73
2019-05-04T23:31:45.321Z,6.63
2019-05-04T23:34:12.616Z,6.63
2019-05-04T23:36:39.405Z,6.87
2019-05-04T23:39:09.041Z,6.87
2019-05-04T23:41:35.774Z,6.94
2019-05-04T23:44:04.466Z,6.92
2019-05-04T23:46:38.848Z,6.94
2019-05-04T23:49:15.698Z,6.94
2019-05-04T23:51:34.517Z,6.83
2019-05-04T23:54:01.320Z,6.83
2019-05-04T23:56:28.338Z,6.69
2019-05-04T23:59:07.509Z,6.63
